createdAt,value
2022-08-23T00:01:51.754Z,22.10
2022-08-23T00:04:23.467Z,22.00
2022-08-23T00:07:02.777Z,21.70
2022-08-23T00:09:30.056Z,21.40
2022-08-23T00:12:16.470Z,21.40
2022-08-23T00:14:48.980Z,21.70
2022-08-23T00:17:34.398Z,21.80
2022-08-23T00:20:04.372Z,21.80
2022-08-23T00:22:31.216Z,21.50
2022-08-23T00:24:58.030Z,21.50
2022-08-23T00:27:24.762Z,21.50
2022-08-23T00:29:55.685Z,21.60
2022-08-23T00:32:25.823Z,21.60
2022-08-23T00:34:52.992Z,21.50
2022-08-23T00:37:21.036Z,21.40
2022-08-23T00:39:47.776Z,21.40
2022-08-23T00:43:06.047Z,21.40
2022-08-23T00:46:13.613Z,21.30
2022-08-23T00:48:41.146Z,21.20
2022-08-23T00:51:21.358Z,21.20
2022-08-23T00:53:53.505Z,21.30
2022-08-23T00:56:22.836Z,21.30
2022-08-23T00:58:50.154Z,21.20
2022-08-23T01:01:18.349Z,21.10
2022-08-23T01:03:49.815Z,21.10
2022-08-23T01:06:33.231Z,21.10
2022-08-23T01:09:09.006Z,20.90
2022-08-23T01:11:48.279Z,20.90
2022-08-23T01:14:22.017Z,20.80
2022-08-23T01:16:55.364Z,20.70
2022-08-23T01:19:31.671Z,20.70
2022-08-23T01:22:14.490Z,20.70
2022-08-23T01:25:08.260Z,20.80
2022-08-23T01:27:30.274Z,20.80
2022-08-23T01:29:59.074Z,20.80
2022-08-23T01:32:25.850Z,20.70
2022-08-23T01:34:52.874Z,20.60
2022-08-23T01:37:21.274Z,20.50
2022-08-23T01:39:48.119Z,20.40
2022-08-23T01:42:14.865Z,20.40
2022-08-23T01:44:41.619Z,20.40
2022-08-23T01:47:08.354Z,20.40
2022-08-23T01:49:35.186Z,20.30
2022-08-23T01:52:01.985Z,20.40
2022-08-23T01:54:29.310Z,20.40
2022-08-23T01:56:56.547Z,20.50
2022-08-23T01:59:24.164Z,20.40
2022-08-23T02:01:51.362Z,20.40
2022-08-23T02:04:18.410Z,20.40
2022-08-23T02:06:45.809Z,20.40
2022-08-23T02:09:17.741Z,20.30
2022-08-23T02:11:45.350Z,20.40
2022-08-23T02:14:14.921Z,20.00
2022-08-23T02:17:03.127Z,19.90
2022-08-23T02:19:32.925Z,19.90
2022-08-23T02:22:00.078Z,19.70
2022-08-23T02:24:27.123Z,19.60
2022-08-23T02:26:57.357Z,19.80
2022-08-23T02:29:25.919Z,19.90
2022-08-23T02:31:53.189Z,19.70
2022-08-23T02:34:35.459Z,19.50
2022-08-23T02:37:02.423Z,19.50
2022-08-23T02:39:29.558Z,19.50
2022-08-23T02:41:56.470Z,19.40
2022-08-23T02:44:24.475Z,19.30
2022-08-23T02:46:51.274Z,19.30
2022-08-23T02:49:18.735Z,19.30
2022-08-23T02:51:46.101Z,19.50
2022-08-23T02:54:13.238Z,19.60
2022-08-23T02:56:40.172Z,19.60
2022-08-23T02:59:07.546Z,19.40
2022-08-23T03:01:37.675Z,19.30
2022-08-23T03:04:06.985Z,19.30
2022-08-23T03:06:34.286Z,19.30
2022-08-23T03:09:01.543Z,19.30
2022-08-23T03:11:28.388Z,19.00
2022-08-23T03:13:56.506Z,18.90
2022-08-23T03:16:24.498Z,18.90
2022-08-23T03:18:52.204Z,19.10
2022-08-23T03:21:20.549Z,19.00
2022-08-23T03:23:48.574Z,18.70
2022-08-23T03:26:16.105Z,18.60
2022-08-23T03:28:44.806Z,18.60
2022-08-23T03:31:12.421Z,18.60
2022-08-23T03:33:39.782Z,18.60
2022-08-23T03:36:10.514Z,18.80
2022-08-23T03:38:39.437Z,18.70
2022-08-23T03:41:06.588Z,18.60
2022-08-23T03:43:34.574Z,18.40
2022-08-23T03:46:01.366Z,18.10
2022-08-23T03:48:28.138Z,18.10
2022-08-23T03:50:54.987Z,18.30
2022-08-23T03:53:23.814Z,18.40
2022-08-23T03:55:52.529Z,18.60
2022-08-23T03:58:21.508Z,18.60
2022-08-23T04:00:48.791Z,18.40
2022-08-23T04:03:15.801Z,18.20
2022-08-23T04:05:42.548Z,18.20
2022-08-23T04:08:11.223Z,18.30
2022-08-23T04:10:39.125Z,18.60
2022-08-23T04:13:09.139Z,18.70
2022-08-23T04:15:36.923Z,18.80
2022-08-23T04:18:04.289Z,18.80
2022-08-23T04:20:31.235Z,18.40
2022-08-23T04:22:58.459Z,18.40
2022-08-23T04:25:34.211Z,18.50
2022-08-23T04:28:03.323Z,18.50
2022-08-23T04:30:30.575Z,18.60
2022-08-23T04:32:57.336Z,18.20
2022-08-23T04:35:25.526Z,18.10
2022-08-23T04:37:52.888Z,18.10
2022-08-23T04:40:38.589Z,17.90
2022-08-23T04:43:05.482Z,17.90
2022-08-23T04:45:32.635Z,18.10
2022-08-23T04:47:59.546Z,17.90
2022-08-23T04:50:26.401Z,17.80
2022-08-23T04:52:53.195Z,17.70
2022-08-23T04:55:20.132Z,17.60
2022-08-23T04:57:46.880Z,17.50
2022-08-23T05:00:16.341Z,17.70
2022-08-23T05:02:43.530Z,17.80
2022-08-23T05:05:11.213Z,17.70
2022-08-23T05:07:41.860Z,17.50
2022-08-23T05:10:15.535Z,17.80
2022-08-23T05:12:42.666Z,18.10
2022-08-23T05:15:10.021Z,18.30
2022-08-23T05:17:37.773Z,18.40
2022-08-23T05:20:06.328Z,18.30
2022-08-23T05:22:34.941Z,18.30
2022-08-23T05:25:01.633Z,18.40
2022-08-23T05:27:28.340Z,18.50
2022-08-23T05:29:55.050Z,18.60
2022-08-23T05:32:22.840Z,18.70
2022-08-23T05:34:49.811Z,18.70
2022-08-23T05:37:17.850Z,18.60
2022-08-23T05:39:44.582Z,18.50
2022-08-23T05:42:14.141Z,18.60
2022-08-23T05:44:40.838Z,18.60
2022-08-23T05:47:11.604Z,18.50
2022-08-23T05:49:39.546Z,18.70
2022-08-23T05:52:10.419Z,18.70
2022-08-23T05:54:38.003Z,18.60
2022-08-23T05:57:04.839Z,18.60
2022-08-23T05:59:31.579Z,18.60
2022-08-23T06:01:58.238Z,18.60
2022-08-23T06:04:24.914Z,18.60
2022-08-23T06:06:51.607Z,18.70
2022-08-23T06:09:19.378Z,18.70
2022-08-23T06:11:47.899Z,18.80
2022-08-23T06:14:15.757Z,18.80
2022-08-23T06:16:54.876Z,18.80
2022-08-23T06:19:23.965Z,18.90
2022-08-23T06:21:52.044Z,18.90
2022-08-23T06:24:19.496Z,19.00
2022-08-23T06:26:47.013Z,19.10
2022-08-23T06:29:17.282Z,19.10
2022-08-23T06:31:49.964Z,19.10
2022-08-23T06:34:25.866Z,19.10
2022-08-23T06:36:56.128Z,19.20
2022-08-23T06:39:25.163Z,19.20
2022-08-23T06:41:52.314Z,19.20
2022-08-23T06:44:19.949Z,19.30
2022-08-23T06:46:48.790Z,19.40
2022-08-23T06:49:16.415Z,19.40
2022-08-23T06:51:50.956Z,19.40
2022-08-23T06:54:22.937Z,19.50
2022-08-23T06:56:54.107Z,19.50
2022-08-23T06:59:23.116Z,19.60
2022-08-23T07:01:54.256Z,19.80
2022-08-23T07:04:28.844Z,19.80
2022-08-23T07:06:56.694Z,19.70
2022-08-23T07:09:23.583Z,19.80
2022-08-23T07:11:51.371Z,19.90
2022-08-23T07:14:19.939Z,19.90
2022-08-23T07:16:52.844Z,19.90
2022-08-23T07:19:22.672Z,20.00
2022-08-23T07:21:57.159Z,20.10
2022-08-23T07:24:27.219Z,20.30
2022-08-23T07:26:57.752Z,20.30
2022-08-23T07:29:24.694Z,20.30
2022-08-23T07:31:55.121Z,20.30
2022-08-23T07:34:22.961Z,20.40
2022-08-23T07:36:51.539Z,20.40
2022-08-23T07:39:19.524Z,20.50
2022-08-23T07:41:46.886Z,20.50
2022-08-23T07:44:18.027Z,20.60
2022-08-23T07:46:46.352Z,20.60
2022-08-23T07:49:14.501Z,20.80
2022-08-23T07:51:45.395Z,20.80
2022-08-23T07:54:13.126Z,20.80
2022-08-23T07:56:40.588Z,20.80
2022-08-23T07:59:08.863Z,20.90
2022-08-23T08:01:36.363Z,21.00
2022-08-23T08:04:05.525Z,21.30
2022-08-23T08:06:41.483Z,21.40
2022-08-23T08:09:10.718Z,21.40
2022-08-23T08:11:40.224Z,21.40
2022-08-23T08:14:09.339Z,21.50
2022-08-23T08:16:40.453Z,21.60
2022-08-23T08:19:09.606Z,21.70
2022-08-23T08:21:39.705Z,22.00
2022-08-23T08:24:12.851Z,22.10
2022-08-23T08:26:41.155Z,22.00
2022-08-23T08:29:11.954Z,22.00
2022-08-23T08:31:40.814Z,21.90
2022-08-23T08:34:08.962Z,22.00
2022-08-23T08:36:42.517Z,21.90
2022-08-23T08:39:16.369Z,21.90
2022-08-23T08:42:05.346Z,22.30
2022-08-23T08:45:16.363Z,22.20
2022-08-23T08:48:04.005Z,22.40
2022-08-23T08:50:53.548Z,22.40
2022-08-23T08:53:26.091Z,22.60
2022-08-23T08:55:59.326Z,22.90
2022-08-23T08:58:30.272Z,22.80
2022-08-23T09:00:57.367Z,22.80
2022-08-23T09:03:29.104Z,22.80
2022-08-23T09:06:03.055Z,22.90
2022-08-23T09:08:38.644Z,23.10
2022-08-23T09:11:17.002Z,23.40
2022-08-23T09:14:15.181Z,23.50
2022-08-23T09:16:53.916Z,23.50
2022-08-23T09:19:23.575Z,23.40
2022-08-23T09:21:58.998Z,23.70
2022-08-23T09:24:26.577Z,23.70
2022-08-23T09:26:53.920Z,23.60
2022-08-23T09:29:25.479Z,23.50
2022-08-23T09:32:02.046Z,24.00
2022-08-23T09:34:36.064Z,24.10
2022-08-23T09:37:19.715Z,24.20
2022-08-23T09:40:13.434Z,24.30
2022-08-23T09:42:41.551Z,24.40
2022-08-23T09:45:27.107Z,24.60
2022-08-23T09:47:54.883Z,24.50
2022-08-23T09:50:32.053Z,24.50
2022-08-23T09:53:06.222Z,24.60
2022-08-23T09:55:38.862Z,24.70
2022-08-23T09:58:37.172Z,24.80
2022-08-23T10:01:19.836Z,25.10
2022-08-23T10:03:47.319Z,25.20
2022-08-23T10:06:31.855Z,25.20
2022-08-23T10:09:04.358Z,25.20
2022-08-23T10:11:42.652Z,25.30
2022-08-23T10:14:09.849Z,25.50
2022-08-23T10:16:53.291Z,25.70
2022-08-23T10:19:50.792Z,25.80
2022-08-23T10:22:22.942Z,25.90
2022-08-23T10:25:00.656Z,26.20
2022-08-23T10:28:04.135Z,26.30
2022-08-23T10:30:55.862Z,26.20
2022-08-23T10:33:31.708Z,26.10
2022-08-23T10:36:10.780Z,26.60
2022-08-23T10:38:47.772Z,26.40
2022-08-23T10:41:24.308Z,26.60
2022-08-23T10:44:02.778Z,26.60
2022-08-23T10:46:34.090Z,26.60
2022-08-23T10:49:02.839Z,26.80
2022-08-23T10:51:51.836Z,26.80
2022-08-23T10:54:34.483Z,26.60
2022-08-23T10:57:04.212Z,26.70
2022-08-23T10:59:32.456Z,26.90
2022-08-23T11:02:26.506Z,27.10
2022-08-23T11:05:05.303Z,27.40
2022-08-23T11:07:35.192Z,27.50
2022-08-23T11:10:16.891Z,27.40
2022-08-23T11:12:58.049Z,27.40
2022-08-23T11:15:45.023Z,27.30
2022-08-23T11:18:37.491Z,27.40
2022-08-23T11:21:33.356Z,27.80
2022-08-23T11:24:00.151Z,27.80
2022-08-23T11:26:26.936Z,27.70
2022-08-23T11:29:06.658Z,27.80
2022-08-23T11:31:47.418Z,27.90
2022-08-23T11:34:29.853Z,27.80
2022-08-23T11:37:18.686Z,27.90
2022-08-23T11:40:00.618Z,28.20
2022-08-23T11:42:50.251Z,28.40
2022-08-23T11:45:40.730Z,28.50
2022-08-23T11:48:31.828Z,28.30
2022-08-23T11:51:10.090Z,28.70
2022-08-23T11:53:53.975Z,28.70
2022-08-23T11:56:33.515Z,28.80
2022-08-23T11:59:15.501Z,28.30
2022-08-23T12:01:44.811Z,28.40
2022-08-23T12:04:33.161Z,28.70
2022-08-23T12:07:07.779Z,28.70
2022-08-23T12:09:36.060Z,29.20
2022-08-23T12:12:26.133Z,29.50
2022-08-23T12:14:56.652Z,29.40
2022-08-23T12:17:25.951Z,29.50
2022-08-23T12:20:00.657Z,29.90
2022-08-23T12:22:34.326Z,29.70
2022-08-23T12:25:04.941Z,29.30
2022-08-23T12:27:41.260Z,29.50
2022-08-23T12:30:20.747Z,29.00
2022-08-23T12:33:04.692Z,28.70
2022-08-23T12:35:49.634Z,28.90
2022-08-23T12:38:27.737Z,29.30
2022-08-23T12:40:56.715Z,29.40
2022-08-23T12:43:29.445Z,29.40
2022-08-23T12:46:01.828Z,29.60
2022-08-23T12:48:32.342Z,29.70
2022-08-23T12:51:03.436Z,29.50
2022-08-23T12:53:31.853Z,29.20
2022-08-23T12:56:17.779Z,29.60
2022-08-23T12:58:56.755Z,30.00
2022-08-23T13:01:33.347Z,29.80
2022-08-23T13:04:08.180Z,29.50
2022-08-23T13:06:44.218Z,29.60
2022-08-23T13:09:36.477Z,29.70
2022-08-23T13:12:04.746Z,30.20
2022-08-23T13:14:43.443Z,30.10
2022-08-23T13:17:31.544Z,29.30
2022-08-23T13:20:01.341Z,30.20
2022-08-23T13:22:31.085Z,29.80
2022-08-23T13:25:26.838Z,30.20
2022-08-23T13:27:48.619Z,30.50
2022-08-23T13:30:17.171Z,30.70
2022-08-23T13:32:50.028Z,30.60
2022-08-23T13:35:30.193Z,31.30
2022-08-23T13:38:07.547Z,31.70
2022-08-23T13:40:57.039Z,31.90
2022-08-23T13:43:55.634Z,31.40
2022-08-23T13:46:26.575Z,30.80
2022-08-23T13:49:01.500Z,30.70
2022-08-23T13:51:33.159Z,30.30
2022-08-23T13:54:03.610Z,31.00
2022-08-23T13:56:34.323Z,31.20
2022-08-23T13:59:07.647Z,31.30
2022-08-23T14:01:35.316Z,31.60
2022-08-23T14:04:02.241Z,31.50
2022-08-23T14:06:29.000Z,31.60
2022-08-23T14:08:55.715Z,31.70
2022-08-23T14:11:22.456Z,31.40
2022-08-23T14:13:49.758Z,31.10
2022-08-23T14:16:39.249Z,31.20
2022-08-23T14:19:54.764Z,30.90
2022-08-23T14:21:56.974Z,31.00
2022-08-23T14:24:26.917Z,31.80
2022-08-23T14:26:54.774Z,32.30
2022-08-23T14:29:23.074Z,31.10
2022-08-23T14:31:51.948Z,30.80
2022-08-23T14:34:19.441Z,31.40
2022-08-23T14:39:33.275Z,32.10
2022-08-23T14:42:00.133Z,31.90
2022-08-23T14:44:31.581Z,31.70
2022-08-23T14:47:00.213Z,31.60
2022-08-23T14:49:26.966Z,31.30
2022-08-23T14:51:54.163Z,31.30
2022-08-23T14:54:23.638Z,31.20
2022-08-23T14:56:50.823Z,31.10
2022-08-23T14:59:17.605Z,31.00
2022-08-23T15:01:45.076Z,30.60
2022-08-23T15:04:18.340Z,30.70
2022-08-23T15:07:06.824Z,31.00
2022-08-23T15:09:32.672Z,30.80
2022-08-23T15:14:46.470Z,30.90
2022-08-23T15:17:13.890Z,30.50
2022-08-23T15:19:40.940Z,30.60
2022-08-23T15:22:15.841Z,30.50
2022-08-23T15:24:45.714Z,30.20
2022-08-23T15:27:12.535Z,30.10
2022-08-23T15:29:39.266Z,30.30
2022-08-23T15:32:06.173Z,30.90
2022-08-23T15:34:36.002Z,30.20
2022-08-23T15:37:02.749Z,30.10
2022-08-23T15:39:29.528Z,30.20
2022-08-23T15:41:56.231Z,30.30
2022-08-23T15:44:23.086Z,30.60
2022-08-23T15:46:50.079Z,30.60
2022-08-23T15:49:19.079Z,30.50
2022-08-23T15:51:45.875Z,30.50
2022-08-23T15:54:12.635Z,30.30
2022-08-23T15:56:49.864Z,30.50
2022-08-23T15:59:19.218Z,30.50
2022-08-23T16:01:46.449Z,30.40
2022-08-23T16:04:13.251Z,30.50
2022-08-23T16:06:41.352Z,30.30
2022-08-23T16:09:14.637Z,30.20
2022-08-23T16:11:43.766Z,30.20
2022-08-23T16:14:10.540Z,30.10
2022-08-23T16:16:39.734Z,30.00
2022-08-23T16:19:07.549Z,30.00
2022-08-23T16:21:36.055Z,29.90
2022-08-23T16:24:03.098Z,30.30
2022-08-23T16:26:35.389Z,30.20
2022-08-23T16:29:03.958Z,30.10
2022-08-23T16:31:38.885Z,30.00
2022-08-23T16:34:08.652Z,29.90
2022-08-23T16:36:35.563Z,30.00
2022-08-23T16:39:02.249Z,29.90
2022-08-23T16:41:28.958Z,29.90
2022-08-23T16:43:55.682Z,29.90
2022-08-23T16:46:24.217Z,29.90
2022-08-23T16:48:51.157Z,29.80
2022-08-23T16:51:17.929Z,29.70
2022-08-23T16:53:44.871Z,29.90
2022-08-23T16:56:29.821Z,29.70
2022-08-23T16:58:56.891Z,29.60
2022-08-23T17:01:23.788Z,29.60
2022-08-23T17:03:51.000Z,29.60
2022-08-23T17:06:18.224Z,29.60
2022-08-23T17:08:45.426Z,29.50
2022-08-23T17:11:16.944Z,29.40
2022-08-23T17:13:44.260Z,29.40
2022-08-23T17:16:11.403Z,29.30
2022-08-23T17:18:38.814Z,29.30
2022-08-23T17:21:06.656Z,29.20
2022-08-23T17:23:34.031Z,29.30
2022-08-23T17:26:07.007Z,29.20
2022-08-23T17:28:33.870Z,29.20
2022-08-23T17:31:00.595Z,29.10
2022-08-23T17:33:27.371Z,29.10
2022-08-23T17:35:54.027Z,29.00
2022-08-23T17:38:20.946Z,28.90
2022-08-23T17:40:47.833Z,28.90
2022-08-23T17:43:14.584Z,29.00
2022-08-23T17:45:47.535Z,29.00
2022-08-23T17:48:15.889Z,28.90
2022-08-23T17:50:43.906Z,28.80
2022-08-23T17:53:12.307Z,28.70
2022-08-23T17:55:40.735Z,28.50
2022-08-23T17:58:09.953Z,28.50
2022-08-23T18:00:38.633Z,28.30
2022-08-23T18:03:05.556Z,28.20
2022-08-23T18:05:33.334Z,28.20
2022-08-23T18:08:01.797Z,28.10
2022-08-23T18:10:29.955Z,28.00
2022-08-23T18:12:57.525Z,27.80
2022-08-23T18:15:24.539Z,27.70
2022-08-23T18:17:52.231Z,27.50
2022-08-23T18:20:26.604Z,27.40
2022-08-23T18:22:54.756Z,27.40
2022-08-23T18:25:21.414Z,27.30
2022-08-23T18:28:06.598Z,27.30
2022-08-23T18:30:38.601Z,27.10
2022-08-23T18:33:06.487Z,27.10
2022-08-23T18:35:34.573Z,27.00
2022-08-23T18:38:02.118Z,26.80
2022-08-23T18:40:29.820Z,26.70
2022-08-23T18:42:57.296Z,26.60
2022-08-23T18:45:24.155Z,26.60
2022-08-23T18:47:51.087Z,26.50
2022-08-23T18:50:18.275Z,26.50
2022-08-23T18:52:45.042Z,26.40
2022-08-23T18:55:11.787Z,26.40
2022-08-23T18:57:39.005Z,26.20
2022-08-23T19:00:07.759Z,26.20
2022-08-23T19:02:35.593Z,26.00
2022-08-23T19:05:03.451Z,26.00
2022-08-23T19:07:30.556Z,25.90
2022-08-23T19:09:57.246Z,25.90
2022-08-23T19:12:24.181Z,25.90
2022-08-23T19:14:50.904Z,25.90
2022-08-23T19:17:17.626Z,25.80
2022-08-23T19:19:44.660Z,25.70
2022-08-23T19:22:12.593Z,25.70
2022-08-23T19:24:39.316Z,25.60
2022-08-23T19:27:06.282Z,25.60
2022-08-23T19:29:33.048Z,25.60
2022-08-23T19:31:59.871Z,25.50
2022-08-23T19:34:26.831Z,25.50
2022-08-23T19:37:00.646Z,25.30
2022-08-23T19:39:29.446Z,25.20
2022-08-23T19:41:56.695Z,25.10
2022-08-23T19:44:23.713Z,25.00
2022-08-23T19:46:50.482Z,25.00
2022-08-23T19:49:17.356Z,25.20
2022-08-23T19:51:44.775Z,25.20
2022-08-23T19:54:12.809Z,25.20
2022-08-23T19:56:52.279Z,25.00
2022-08-23T19:59:24.652Z,24.80
2022-08-23T20:01:53.479Z,24.70
2022-08-23T20:04:22.557Z,24.60
2022-08-23T20:06:50.823Z,24.60
2022-08-23T20:09:19.116Z,24.50
2022-08-23T20:11:46.260Z,24.50
2022-08-23T20:14:12.990Z,24.60
2022-08-23T20:16:41.420Z,24.60
2022-08-23T20:19:09.917Z,24.60
2022-08-23T20:21:38.026Z,24.60
2022-08-23T20:24:05.435Z,24.40
2022-08-23T20:26:35.102Z,24.10
2022-08-23T20:29:03.426Z,24.00
2022-08-23T20:31:33.452Z,23.90
2022-08-23T20:34:00.868Z,23.80
2022-08-23T20:36:28.692Z,23.60
2022-08-23T20:38:58.379Z,23.60
2022-08-23T20:41:27.678Z,23.60
2022-08-23T20:43:55.570Z,23.60
2022-08-23T20:46:22.484Z,23.40
2022-08-23T20:48:51.469Z,23.40
2022-08-23T20:51:19.903Z,23.40
2022-08-23T20:53:47.263Z,23.20
2022-08-23T20:56:14.350Z,23.30
2022-08-23T20:58:40.999Z,23.30
2022-08-23T21:01:11.278Z,23.60
2022-08-23T21:03:38.647Z,23.40
2022-08-23T21:06:08.485Z,23.60
2022-08-23T21:08:41.993Z,23.80
2022-08-23T21:11:10.343Z,23.80
2022-08-23T21:13:38.529Z,23.80
2022-08-23T21:16:05.516Z,23.80
2022-08-23T21:18:32.395Z,23.30
2022-08-23T21:20:59.573Z,23.10
2022-08-23T21:23:26.638Z,22.80
2022-08-23T21:25:54.757Z,22.80
2022-08-23T21:28:22.398Z,22.70
2022-08-23T21:30:49.219Z,22.60
2022-08-23T21:33:16.664Z,22.70
2022-08-23T21:35:44.348Z,22.60
2022-08-23T21:38:11.220Z,22.50
2022-08-23T21:40:38.393Z,22.50
2022-08-23T21:43:05.140Z,22.40
2022-08-23T21:45:32.101Z,22.20
2022-08-23T21:47:58.830Z,22.20
2022-08-23T21:50:28.671Z,22.00
2022-08-23T21:52:56.588Z,21.90
2022-08-23T21:55:36.116Z,21.80
2022-08-23T21:58:03.921Z,21.80
2022-08-23T22:00:31.849Z,22.20
2022-08-23T22:02:58.721Z,22.40
2022-08-23T22:05:26.572Z,22.50
2022-08-23T22:07:53.887Z,22.60
2022-08-23T22:10:21.804Z,22.50
2022-08-23T22:12:48.854Z,22.10
2022-08-23T22:15:16.411Z,21.70
2022-08-23T22:17:43.273Z,21.50
2022-08-23T22:20:13.495Z,21.60
2022-08-23T22:22:40.371Z,21.80
2022-08-23T22:25:08.834Z,21.80
2022-08-23T22:27:36.292Z,22.10
2022-08-23T22:30:03.149Z,22.20
2022-08-23T22:32:29.831Z,21.70
2022-08-23T22:34:57.911Z,21.40
2022-08-23T22:37:25.227Z,21.50
2022-08-23T22:39:56.384Z,21.30
2022-08-23T22:42:23.406Z,21.20
2022-08-23T22:44:50.711Z,21.10
2022-08-23T22:47:17.707Z,21.20
2022-08-23T22:49:44.443Z,21.50
2022-08-23T22:52:11.113Z,21.60
2022-08-23T22:54:37.886Z,21.50
2022-08-23T22:57:04.791Z,21.30
2022-08-23T22:59:33.232Z,21.00
2022-08-23T23:02:03.307Z,20.90
2022-08-23T23:04:32.357Z,21.10
2022-08-23T23:06:59.524Z,21.30
2022-08-23T23:09:26.718Z,21.40
2022-08-23T23:11:54.557Z,21.30
2022-08-23T23:14:22.104Z,21.20
2022-08-23T23:16:49.522Z,21.20
2022-08-23T23:19:35.999Z,21.30
2022-08-23T23:22:03.685Z,21.20
2022-08-23T23:24:33.664Z,21.10
2022-08-23T23:27:01.617Z,21.10
2022-08-23T23:29:30.992Z,21.10
2022-08-23T23:31:58.819Z,21.50
2022-08-23T23:34:26.689Z,21.60
2022-08-23T23:36:57.886Z,21.70
2022-08-23T23:39:25.350Z,21.70
2022-08-23T23:41:52.349Z,21.50
2022-08-23T23:44:30.844Z,21.20
2022-08-23T23:46:59.688Z,21.00
2022-08-23T23:49:32.622Z,21.10
2022-08-23T23:52:01.167Z,21.00
2022-08-23T23:54:27.951Z,21.10
2022-08-23T23:56:55.496Z,21.10
2022-08-23T23:59:22.191Z,21.10
